createdAt,value
2018-05-27T04:02:41.617Z,10.87
2018-05-27T04:05:21.170Z,13.20
2018-05-27T04:08:00.559Z,11.30
2018-05-27T04:10:28.130Z,9.67
2018-05-27T04:12:56.433Z,13.10
2018-05-27T04:15:24.001Z,8.73
2018-05-27T04:17:51.538Z,10.73
2018-05-27T04:20:19.875Z,9.67
2018-05-27T04:22:47.407Z,8.03
2018-05-27T04:25:14.981Z,8.00
2018-05-27T04:27:42.529Z,8.63
2018-05-27T04:30:10.106Z,15.63
2018-05-27T04:32:37.650Z,8.53
2018-05-27T04:35:05.222Z,11.00
2018-05-27T04:37:32.761Z,11.13
2018-05-27T04:40:00.326Z,11.93
2018-05-27T04:42:27.861Z,14.30
2018-05-27T04:44:55.426Z,11.07
2018-05-27T04:47:22.970Z,9.93
2018-05-27T04:49:51.294Z,10.27
2018-05-27T04:52:18.838Z,11.97
2018-05-27T04:54:46.401Z,7.93
2018-05-27T04:57:13.954Z,15.70
2018-05-27T04:59:41.514Z,10.03
2018-05-27T05:02:09.047Z,10.43
2018-05-27T05:04:37.354Z,8.43
2018-05-27T05:07:04.928Z,9.93
2018-05-27T05:09:32.514Z,10.73
2018-05-27T05:12:00.061Z,10.87
2018-05-27T05:14:27.606Z,9.90
2018-05-27T05:16:55.185Z,11.17
2018-05-27T05:19:22.729Z,11.73
2018-05-27T05:21:50.286Z,8.53
2018-05-27T05:24:17.847Z,12.07
2018-05-27T05:26:45.404Z,9.30
2018-05-27T05:29:12.967Z,8.03
2018-05-27T05:31:40.526Z,8.03
2018-05-27T05:34:08.072Z,7.30
2018-05-27T05:36:35.642Z,6.73
2018-05-27T05:39:03.190Z,7.43
2018-05-27T05:41:30.749Z,6.20
2018-05-27T05:43:58.309Z,7.97
2018-05-27T05:46:25.880Z,10.60
2018-05-27T05:48:53.427Z,8.53
2018-05-27T05:51:20.993Z,6.57
2018-05-27T05:53:48.546Z,10.10
2018-05-27T05:56:16.126Z,11.10
2018-05-27T05:58:43.670Z,13.30
2018-05-27T06:01:11.243Z,9.00
2018-05-27T06:03:38.799Z,10.40
2018-05-27T06:06:06.359Z,6.87
2018-05-27T06:08:33.904Z,6.90
2018-05-27T06:11:02.242Z,7.53
2018-05-27T06:13:29.838Z,6.97
2018-05-27T06:15:57.415Z,6.10
2018-05-27T06:18:25.706Z,7.77
2018-05-27T06:20:53.273Z,6.10
2018-05-27T06:23:20.809Z,6.60
2018-05-27T06:25:48.414Z,9.03
2018-05-27T06:28:15.947Z,6.73
2018-05-27T06:30:43.491Z,9.13
2018-05-27T06:33:11.061Z,6.27
2018-05-27T06:35:38.606Z,7.13
2018-05-27T06:38:06.943Z,6.20
2018-05-27T06:40:34.481Z,7.00
2018-05-27T06:43:02.060Z,5.57
2018-05-27T06:45:29.608Z,6.17
2018-05-27T06:47:57.177Z,5.50
2018-05-27T06:50:24.730Z,5.33
2018-05-27T06:52:52.305Z,8.33
2018-05-27T06:55:19.852Z,7.27
2018-05-27T06:57:47.426Z,7.23
2018-05-27T07:00:14.972Z,5.20
2018-05-27T07:02:42.525Z,5.30
2018-05-27T07:05:10.182Z,7.63
2018-05-27T07:07:37.749Z,6.30
2018-05-27T07:10:05.291Z,5.67
2018-05-27T07:12:32.867Z,5.07
2018-05-27T07:15:00.406Z,5.70
2018-05-27T07:17:27.966Z,6.07
2018-05-27T07:19:55.509Z,5.83
2018-05-27T07:22:23.835Z,6.70
2018-05-27T07:24:51.376Z,5.80
2018-05-27T07:27:18.938Z,8.83
2018-05-27T07:29:46.477Z,5.60
2018-05-27T07:32:14.098Z,5.70
2018-05-27T07:34:41.615Z,5.20
2018-05-27T07:37:09.190Z,5.20
2018-05-27T07:39:36.728Z,5.87
2018-05-27T07:42:04.291Z,6.17
2018-05-27T07:44:31.829Z,8.17
2018-05-27T07:47:00.161Z,5.57
2018-05-27T07:49:27.707Z,7.50
2018-05-27T07:51:55.275Z,6.00
2018-05-27T07:54:22.830Z,6.17
2018-05-27T07:56:50.364Z,6.10
2018-05-27T07:59:17.943Z,7.43
2018-05-27T08:01:45.487Z,7.77
2018-05-27T08:04:13.052Z,5.93
2018-05-27T08:06:40.591Z,6.40
2018-05-27T08:09:08.943Z,6.00
2018-05-27T08:11:36.488Z,9.00
2018-05-27T08:14:04.050Z,7.60
2018-05-27T08:16:31.598Z,7.97
2018-05-27T08:18:59.174Z,5.40
2018-05-27T08:21:26.712Z,6.53
2018-05-27T08:23:54.286Z,6.10
2018-05-27T08:26:21.818Z,7.67
2018-05-27T08:28:50.407Z,6.17
2018-05-27T08:31:17.943Z,6.23
2018-05-27T08:33:46.273Z,5.17
2018-05-27T08:36:13.822Z,5.50
2018-05-27T08:38:41.393Z,7.17
2018-05-27T08:41:08.922Z,5.40
2018-05-27T08:43:36.492Z,6.17
2018-05-27T08:46:04.038Z,6.60
2018-05-27T08:48:31.609Z,12.30
2018-05-27T08:50:59.167Z,7.30
2018-05-27T08:53:26.770Z,21.90
2018-05-27T08:55:54.302Z,6.40
2018-05-27T08:58:21.870Z,6.37
2018-05-27T09:00:49.528Z,6.17
2018-05-27T09:03:17.099Z,5.87
2018-05-27T09:05:44.644Z,6.13
2018-05-27T09:08:12.222Z,8.63
2018-05-27T09:10:39.775Z,5.83
2018-05-27T09:13:07.342Z,8.90
2018-05-27T09:15:34.885Z,8.50
2018-05-27T09:18:02.427Z,8.47
2018-05-27T09:20:30.006Z,6.93
2018-05-27T09:22:57.570Z,7.00
2018-05-27T09:25:25.134Z,6.47
2018-05-27T09:27:52.686Z,7.17
2018-05-27T09:30:20.258Z,7.67
2018-05-27T09:32:47.803Z,8.67
2018-05-27T09:35:15.374Z,10.90
2018-05-27T09:37:42.915Z,6.60
2018-05-27T09:40:10.482Z,6.30
2018-05-27T09:42:38.023Z,6.87
2018-05-27T09:45:05.673Z,6.03
2018-05-27T09:47:33.182Z,6.20
2018-05-27T09:50:00.741Z,6.17
2018-05-27T09:52:28.285Z,7.30
2018-05-27T09:54:55.846Z,5.20
2018-05-27T09:57:23.379Z,5.53
2018-05-27T09:59:50.963Z,6.33
2018-05-27T10:02:18.518Z,5.87
2018-05-27T10:04:46.081Z,6.47
2018-05-27T10:07:13.618Z,5.90
2018-05-27T10:09:41.178Z,6.37
2018-05-27T10:12:09.490Z,6.90
2018-05-27T10:14:37.860Z,5.67
2018-05-27T10:17:05.409Z,6.67
2018-05-27T10:19:32.983Z,5.67
2018-05-27T10:22:00.539Z,5.53
2018-05-27T10:24:28.111Z,5.77
2018-05-27T10:26:55.683Z,5.87
2018-05-27T10:29:23.227Z,6.80
2018-05-27T10:31:50.790Z,5.87
2018-05-27T10:34:18.335Z,5.13
2018-05-27T10:36:45.924Z,5.27
2018-05-27T10:39:13.482Z,5.40
2018-05-27T10:41:41.045Z,5.57
2018-05-27T10:44:08.586Z,5.90
2018-05-27T10:46:36.163Z,5.70
2018-05-27T10:49:03.706Z,5.97
2018-05-27T10:51:31.298Z,5.67
2018-05-27T10:53:58.833Z,6.53
2018-05-27T10:56:26.416Z,5.50
2018-05-27T10:58:53.959Z,5.17
2018-05-27T11:01:21.540Z,5.57
2018-05-27T11:03:49.070Z,5.30
2018-05-27T11:06:16.642Z,6.43
2018-05-27T11:08:44.181Z,7.67
2018-05-27T11:11:11.744Z,6.60
2018-05-27T11:13:39.291Z,6.13
2018-05-27T11:16:06.862Z,6.50
2018-05-27T11:18:34.407Z,5.53
2018-05-27T11:21:01.984Z,6.10
2018-05-27T11:23:29.525Z,5.73
2018-05-27T11:25:57.098Z,5.73
2018-05-27T11:28:24.639Z,6.57
2018-05-27T11:30:52.983Z,5.07
2018-05-27T11:33:20.531Z,9.13
2018-05-27T11:35:48.094Z,8.63
2018-05-27T11:38:15.651Z,5.83
2018-05-27T11:40:43.214Z,6.07
2018-05-27T11:43:10.767Z,7.00
2018-05-27T11:45:38.331Z,7.87
2018-05-27T11:48:05.874Z,6.73
2018-05-27T11:50:33.454Z,5.23
2018-05-27T11:53:01.005Z,5.07
2018-05-27T11:55:28.578Z,5.50
2018-05-27T11:57:56.131Z,5.40
2018-05-27T12:00:23.687Z,8.40
2018-05-27T12:02:51.254Z,5.40
2018-05-27T12:05:18.808Z,5.00
2018-05-27T12:07:46.383Z,5.07
2018-05-27T12:10:13.927Z,6.77
2018-05-27T12:12:41.487Z,7.93
2018-05-27T12:15:09.026Z,4.57
2018-05-27T12:17:36.602Z,7.33
2018-05-27T12:20:04.134Z,5.67
2018-05-27T12:22:32.462Z,5.73
2018-05-27T12:24:59.995Z,5.83
2018-05-27T12:27:27.554Z,5.17
2018-05-27T12:29:55.191Z,5.00
2018-05-27T12:32:22.693Z,5.23
2018-05-27T12:34:50.235Z,5.97
2018-05-27T12:37:17.811Z,6.37
2018-05-27T12:39:45.349Z,5.53
2018-05-27T12:42:12.937Z,4.90
2018-05-27T12:44:40.484Z,4.47
2018-05-27T12:47:08.055Z,5.57
2018-05-27T12:49:35.590Z,6.23
2018-05-27T12:52:03.152Z,5.20
2018-05-27T12:54:30.694Z,4.67
2018-05-27T12:56:59.047Z,4.70
2018-05-27T12:59:28.111Z,4.43
2018-05-27T13:01:55.684Z,6.67
2018-05-27T13:04:23.226Z,4.70
2018-05-27T13:06:50.808Z,4.93
2018-05-27T13:09:18.349Z,6.40
2018-05-27T13:11:46.254Z,4.50
2018-05-27T13:14:14.377Z,5.50
2018-05-27T13:16:42.074Z,4.53
2018-05-27T13:19:09.522Z,9.00
2018-05-27T13:21:37.106Z,6.43
2018-05-27T13:24:05.425Z,5.30
2018-05-27T13:26:33.003Z,10.13
2018-05-27T13:29:01.085Z,41.07
2018-05-27T13:31:28.666Z,20.57
2018-05-27T13:33:56.237Z,16.17
2018-05-27T13:36:24.371Z,15.60
2018-05-27T13:38:52.897Z,14.70
2018-05-27T13:41:20.446Z,17.17
2018-05-27T13:43:48.818Z,20.13
2018-05-27T13:46:16.354Z,20.37
2018-05-27T13:48:44.402Z,24.43
2018-05-27T13:51:12.701Z,23.57
2018-05-27T13:53:40.273Z,17.57
2018-05-27T13:56:07.821Z,24.20
2018-05-27T13:58:37.155Z,17.93
2018-05-27T14:01:04.702Z,29.60
2018-05-27T14:03:33.206Z,28.67
2018-05-27T14:06:00.749Z,33.63
2018-05-27T14:08:28.363Z,33.03
2018-05-27T14:10:55.911Z,32.87
2018-05-27T14:13:24.255Z,26.90
2018-05-27T14:15:52.495Z,34.50
2018-05-27T14:18:20.069Z,39.67
2018-05-27T14:20:47.609Z,27.47
2018-05-27T14:23:15.175Z,25.97
2018-05-27T14:25:43.653Z,34.37
2018-05-27T14:28:11.215Z,34.57
2018-05-27T14:30:38.765Z,26.53
2018-05-27T14:33:06.337Z,30.40
2018-05-27T14:35:33.874Z,31.60
2018-05-27T14:38:03.255Z,31.03
2018-05-27T14:40:30.801Z,28.23
2018-05-27T14:42:58.379Z,23.80
2018-05-27T14:45:25.919Z,22.87
2018-05-27T14:47:53.482Z,27.20
2018-05-27T14:50:21.038Z,23.60
2018-05-27T14:52:48.636Z,27.77
2018-05-27T14:55:16.933Z,19.13
2018-05-27T14:57:44.493Z,29.10
2018-05-27T15:00:12.033Z,25.57
2018-05-27T15:02:40.377Z,26.67
2018-05-27T15:05:07.920Z,29.37
2018-05-27T15:07:35.506Z,27.20
2018-05-27T15:10:03.084Z,18.83
2018-05-27T15:12:30.627Z,26.93
2018-05-27T15:14:58.205Z,23.13
2018-05-27T15:17:26.513Z,27.53
2018-05-27T15:19:54.087Z,26.33
2018-05-27T15:22:21.626Z,25.47
2018-05-27T15:24:49.961Z,34.40
2018-05-27T15:27:17.502Z,27.33
2018-05-27T15:29:45.067Z,20.47
2018-05-27T15:32:12.660Z,20.10
2018-05-27T15:34:40.219Z,27.00
2018-05-27T15:37:09.278Z,29.17
2018-05-27T15:39:36.861Z,23.47
2018-05-27T15:42:04.402Z,26.60
2018-05-27T15:44:31.966Z,18.23
2018-05-27T15:46:59.507Z,24.87
2018-05-27T15:49:27.079Z,24.93
2018-05-27T15:51:54.627Z,23.60
2018-05-27T15:54:22.209Z,26.50
2018-05-27T15:56:49.747Z,20.67
2018-05-27T15:59:17.354Z,26.17
2018-05-27T16:01:44.915Z,19.53
2018-05-27T16:04:12.490Z,25.47
2018-05-27T16:06:40.798Z,22.30
2018-05-27T16:09:08.374Z,22.43
2018-05-27T16:11:35.917Z,23.33
2018-05-27T16:14:03.494Z,19.07
2018-05-27T16:16:31.043Z,21.13
2018-05-27T16:18:58.601Z,32.03
2018-05-27T16:21:26.165Z,23.43
2018-05-27T16:23:54.452Z,22.17
2018-05-27T16:26:22.018Z,27.17
2018-05-27T16:28:49.610Z,18.17
2018-05-27T16:31:17.153Z,25.70
2018-05-27T16:33:44.726Z,18.50
2018-05-27T16:36:12.274Z,21.30
2018-05-27T16:38:39.846Z,22.97
2018-05-27T16:41:07.407Z,19.77
2018-05-27T16:43:34.992Z,22.30
2018-05-27T16:46:03.311Z,21.27
2018-05-27T16:48:30.854Z,18.80
2018-05-27T16:50:58.426Z,13.43
2018-05-27T16:53:25.985Z,13.07
2018-05-27T16:55:53.552Z,17.73
2018-05-27T16:58:21.098Z,16.07
2018-05-27T17:00:48.661Z,18.80
2018-05-27T17:03:16.213Z,18.13
2018-05-27T17:05:43.797Z,16.07
2018-05-27T17:08:11.341Z,20.87
2018-05-27T17:10:38.901Z,15.43
2018-05-27T17:13:06.441Z,19.87
2018-05-27T17:15:34.858Z,21.60
2018-05-27T17:18:02.402Z,19.40
2018-05-27T17:20:29.967Z,18.97
2018-05-27T17:22:57.627Z,15.20
2018-05-27T17:25:25.194Z,9.00
2018-05-27T17:27:52.772Z,18.80
2018-05-27T17:30:20.340Z,13.23
2018-05-27T17:32:47.897Z,13.63
2018-05-27T17:35:15.475Z,14.40
2018-05-27T17:37:43.013Z,13.13
2018-05-27T17:40:10.593Z,14.53
2018-05-27T17:42:38.157Z,17.17
2018-05-27T17:45:05.724Z,16.13
2018-05-27T17:47:33.275Z,20.00
2018-05-27T17:50:00.841Z,18.20
2018-05-27T17:52:28.374Z,22.87
2018-05-27T17:54:55.946Z,12.97
2018-05-27T17:57:23.494Z,12.43
2018-05-27T17:59:51.073Z,18.73
2018-05-27T18:02:18.614Z,14.47
2018-05-27T18:04:46.197Z,18.77
2018-05-27T18:07:13.736Z,21.90
2018-05-27T18:09:41.305Z,19.23
2018-05-27T18:12:08.852Z,19.17
2018-05-27T18:14:36.414Z,20.77
2018-05-27T18:17:03.988Z,16.97
2018-05-27T18:19:31.527Z,23.57
2018-05-27T18:21:59.090Z,20.23
2018-05-27T18:24:26.643Z,16.87
2018-05-27T18:26:54.213Z,16.80
2018-05-27T18:29:21.768Z,15.83
2018-05-27T18:31:49.340Z,16.00
2018-05-27T18:34:16.909Z,17.47
2018-05-27T18:36:44.477Z,13.30
2018-05-27T18:39:12.023Z,13.73
2018-05-27T18:41:39.587Z,16.40
2018-05-27T18:44:07.131Z,19.13
2018-05-27T18:46:34.700Z,20.13
2018-05-27T18:49:02.250Z,14.50
2018-05-27T18:51:29.820Z,13.63
2018-05-27T18:53:57.371Z,17.77
2018-05-27T18:56:24.936Z,16.07
2018-05-27T18:58:52.488Z,18.27
